Accueil
METAR-TAF:

METAR-TAF

Aéroports :

Saint-Dizier, France

Base aérienne 113 Saint-Dizier-Robinson

latitude: 48-38N, longitude: 004-54E, altitude: 139 m

Observation

Le bulletin a été fait il y a 19 minutes, à 16:30 UTC
Vent 4 kt de est, variant entre est/nord-est et sud-est
Température 26°C
Humidité 51%
Pression 1017 hPa
Visibilité 10 km ou plus
pas de nuages en-dessous de 1500 mètres et pas de cumulonimbus.

METAR: LFSI 221630Z AUTO 10004KT 060V140 CAVOK 26/15 Q1017

Heure: 18:49 (16:49 UTC)

Prévision

Le bulletin a été fait il y a 2 heures et 49 minutes, à 14:00 UTC
Prévision valable du 22 à 15 UTC au 23 à 15 UTC
Vent 5 kt de est
Visibilité 10 km ou plus
pas de nuages en-dessous de 1500 mètres et pas de cumulonimbus.

TAF: LFSI 221400Z 2215/2315 10005KT CAVOK

Observations et prévisions météorologiques de plus de 4000 aéroports (messages METAR et TAF).

Les stations disponibles sont représentées par des disques jaunes et rouges sur la carte.

Passer la souris dessus pour voir le nom de la station.

Cliquer dessus pour voir les observations et prévisions météorologiques.

Pour changer de carte: cliquez sur les boutons verts avec une croix noire pour zoomer, sur le bouton vert avec un tiret pour effectuer un zoom arrière, ou sur les flèches vertes pour les cartes adjacentes.


METAR-TAF: